createdAt,value
2022-07-25T00:02:25.214Z,4.60
2022-07-25T00:04:51.781Z,3.90
2022-07-25T00:07:18.306Z,4.13
2022-07-25T00:09:44.769Z,4.90
2022-07-25T00:12:12.607Z,4.13
2022-07-25T00:14:39.103Z,3.83
2022-07-25T00:17:05.574Z,3.90
2022-07-25T00:19:32.098Z,3.87
2022-07-25T00:21:58.534Z,4.27
2022-07-25T00:24:24.983Z,3.80
2022-07-25T00:26:51.501Z,3.80
2022-07-25T00:29:17.988Z,4.33
2022-07-25T00:31:44.461Z,3.60
2022-07-25T00:34:11.091Z,3.70
2022-07-25T00:36:37.665Z,3.87
2022-07-25T00:39:04.156Z,4.07
2022-07-25T00:41:30.599Z,4.00
2022-07-25T00:43:57.062Z,4.10
2022-07-25T00:46:26.340Z,3.67
2022-07-25T00:48:53.644Z,4.10
2022-07-25T00:51:20.151Z,4.10
2022-07-25T00:53:46.620Z,3.60
2022-07-25T00:56:13.195Z,3.70
2022-07-25T00:58:39.667Z,3.90
2022-07-25T01:01:06.204Z,3.90
2022-07-25T01:03:32.748Z,3.83
2022-07-25T01:05:59.255Z,3.53
2022-07-25T01:08:25.719Z,4.10
2022-07-25T01:10:52.189Z,3.90
2022-07-25T01:13:18.666Z,4.20
2022-07-25T01:15:47.465Z,4.23
2022-07-25T01:18:13.923Z,4.10
2022-07-25T01:20:40.364Z,4.33
2022-07-25T01:23:06.829Z,3.67
2022-07-25T01:25:33.309Z,3.73
2022-07-25T01:27:59.795Z,3.70
2022-07-25T01:30:26.269Z,4.10
2022-07-25T01:32:52.761Z,3.80
2022-07-25T01:35:19.236Z,3.70
2022-07-25T01:37:46.114Z,4.20
2022-07-25T01:40:12.797Z,3.70
2022-07-25T01:42:39.253Z,3.63
2022-07-25T01:45:05.761Z,4.30
2022-07-25T01:47:32.254Z,3.70
2022-07-25T01:49:58.720Z,4.27
2022-07-25T01:52:25.178Z,4.33
2022-07-25T01:54:51.686Z,3.70
2022-07-25T01:57:18.156Z,3.70
2022-07-25T01:59:44.652Z,3.70
2022-07-25T02:02:11.188Z,4.33
2022-07-25T02:04:37.761Z,3.30
2022-07-25T02:07:04.283Z,4.33
2022-07-25T02:09:32.694Z,3.80
2022-07-25T02:11:59.190Z,3.80
2022-07-25T02:14:25.708Z,3.80
2022-07-25T02:16:52.236Z,4.33
2022-07-25T02:19:18.781Z,3.77
2022-07-25T02:21:45.250Z,4.10
2022-07-25T02:24:11.698Z,3.80
2022-07-25T02:26:38.185Z,3.97
2022-07-25T02:29:04.631Z,3.97
2022-07-25T02:31:31.122Z,3.93
2022-07-25T02:33:57.598Z,3.60
2022-07-25T02:36:24.090Z,3.47
2022-07-25T02:38:50.566Z,3.90
2022-07-25T02:41:17.090Z,3.63
2022-07-25T02:43:46.253Z,4.07
2022-07-25T02:46:12.794Z,4.10
2022-07-25T02:48:39.385Z,3.90
2022-07-25T02:51:05.897Z,3.60
2022-07-25T02:53:56.228Z,4.67
2022-07-25T02:56:18.845Z,3.60
2022-07-25T02:58:47.862Z,3.97
2022-07-25T03:01:14.484Z,3.90
2022-07-25T03:03:41.081Z,3.83
2022-07-25T03:06:07.628Z,4.40
2022-07-25T03:08:34.112Z,3.80
2022-07-25T03:11:00.599Z,3.80
2022-07-25T03:13:27.051Z,3.77
2022-07-25T03:15:53.492Z,3.93
2022-07-25T03:18:19.968Z,3.40
2022-07-25T03:20:46.433Z,4.03
2022-07-25T03:23:12.909Z,4.50
2022-07-25T03:25:39.366Z,4.40
2022-07-25T03:28:05.858Z,3.97
2022-07-25T03:30:32.364Z,4.20
2022-07-25T03:32:58.861Z,3.50
2022-07-25T03:35:25.335Z,4.00
2022-07-25T03:37:51.794Z,3.63
2022-07-25T03:40:18.276Z,4.40
2022-07-25T03:42:44.737Z,3.57
2022-07-25T03:45:11.221Z,3.27
2022-07-25T03:47:37.733Z,3.60
2022-07-25T03:50:04.221Z,3.83
2022-07-25T03:52:30.697Z,3.70
2022-07-25T03:54:57.152Z,3.67
2022-07-25T03:57:23.770Z,3.97
2022-07-25T03:59:50.244Z,3.53
2022-07-25T04:02:16.761Z,3.37
2022-07-25T04:04:43.237Z,4.43
2022-07-25T04:07:09.695Z,3.77
2022-07-25T04:09:37.216Z,3.70
2022-07-25T04:12:03.671Z,3.80
2022-07-25T04:14:30.118Z,3.90
2022-07-25T04:16:56.628Z,3.50
2022-07-25T04:19:23.361Z,3.50
2022-07-25T04:21:52.625Z,3.40
2022-07-25T04:24:19.076Z,3.67
2022-07-25T04:26:45.734Z,3.60
2022-07-25T04:29:12.170Z,3.50
2022-07-25T04:31:38.742Z,3.93
2022-07-25T04:34:05.554Z,3.37
2022-07-25T04:36:32.260Z,3.40
2022-07-25T04:38:58.795Z,3.33
2022-07-25T04:41:26.436Z,3.30
2022-07-25T04:43:54.411Z,3.47
2022-07-25T04:46:21.080Z,4.30
2022-07-25T04:48:48.136Z,3.73
2022-07-25T04:51:14.701Z,3.20
2022-07-25T04:53:41.328Z,3.03
2022-07-25T04:56:07.847Z,4.07
2022-07-25T04:58:34.347Z,3.80
2022-07-25T05:01:00.915Z,3.67
2022-07-25T05:03:27.533Z,3.83
2022-07-25T05:05:54.056Z,3.57
2022-07-25T05:08:21.471Z,3.73
2022-07-25T05:11:03.147Z,4.37
2022-07-25T05:13:29.809Z,3.07
2022-07-25T05:15:56.346Z,4.37
2022-07-25T05:18:22.864Z,3.70
2022-07-25T05:20:49.321Z,3.87
2022-07-25T05:23:15.840Z,3.40
2022-07-25T05:25:42.295Z,3.50
2022-07-25T05:28:08.751Z,3.50
2022-07-25T05:30:39.792Z,3.60
2022-07-25T05:33:06.636Z,4.60
2022-07-25T05:35:33.224Z,3.37
2022-07-25T05:37:59.707Z,3.10
2022-07-25T05:40:26.193Z,3.70
2022-07-25T05:42:52.674Z,3.50
2022-07-25T05:45:19.134Z,3.90
2022-07-25T05:47:45.594Z,3.40
2022-07-25T05:50:12.049Z,3.57
2022-07-25T05:52:40.883Z,4.13
2022-07-25T05:55:07.376Z,3.70
2022-07-25T05:57:33.844Z,3.50
2022-07-25T06:00:11.645Z,3.63
2022-07-25T06:02:38.488Z,3.80
2022-07-25T06:05:05.103Z,3.57
2022-07-25T06:07:31.579Z,3.37
2022-07-25T06:09:58.041Z,3.20
2022-07-25T06:12:24.647Z,3.40
2022-07-25T06:14:51.149Z,3.67
2022-07-25T06:17:18.076Z,3.47
2022-07-25T06:19:44.591Z,3.97
2022-07-25T06:22:11.132Z,3.70
2022-07-25T06:24:37.623Z,3.10
2022-07-25T06:27:04.148Z,3.53
2022-07-25T06:29:30.831Z,3.83
2022-07-25T06:31:57.425Z,3.43
2022-07-25T06:34:28.522Z,3.03
2022-07-25T06:36:55.342Z,4.00
2022-07-25T06:39:23.800Z,3.57
2022-07-25T06:41:50.338Z,3.43
2022-07-25T06:44:16.878Z,3.23
2022-07-25T06:46:43.455Z,3.00
2022-07-25T06:49:11.132Z,3.33
2022-07-25T06:51:37.634Z,3.13
2022-07-25T06:54:04.605Z,3.30
2022-07-25T06:56:31.218Z,3.43
2022-07-25T06:58:57.723Z,3.90
2022-07-25T07:01:24.277Z,3.83
2022-07-25T07:03:50.951Z,3.73
2022-07-25T07:06:17.485Z,3.50
2022-07-25T07:08:43.967Z,3.40
2022-07-25T07:11:10.430Z,3.50
2022-07-25T07:13:36.900Z,3.50
2022-07-25T07:16:03.435Z,3.73
2022-07-25T07:18:29.928Z,3.50
2022-07-25T07:20:56.406Z,3.67
2022-07-25T07:23:22.887Z,3.60
2022-07-25T07:25:51.158Z,3.50
2022-07-25T07:28:17.621Z,3.73
2022-07-25T07:31:14.446Z,3.47
2022-07-25T07:33:30.494Z,3.40
2022-07-25T07:35:57.067Z,3.90
2022-07-25T07:38:23.642Z,3.47
2022-07-25T07:40:50.124Z,4.37
2022-07-25T07:43:16.606Z,3.50
2022-07-25T07:45:43.073Z,3.30
2022-07-25T07:48:09.593Z,3.50
2022-07-25T07:50:36.068Z,3.20
2022-07-25T07:53:02.507Z,3.93
2022-07-25T07:55:30.027Z,2.90
2022-07-25T07:57:56.459Z,3.50
2022-07-25T08:00:22.901Z,4.10
2022-07-25T08:02:49.392Z,3.50
2022-07-25T08:05:15.940Z,3.57
2022-07-25T08:07:42.537Z,3.53
2022-07-25T08:10:08.975Z,3.50
2022-07-25T08:12:35.971Z,3.43
2022-07-25T08:15:02.445Z,3.40
2022-07-25T08:17:28.957Z,3.57
2022-07-25T08:19:55.412Z,3.37
2022-07-25T08:22:21.849Z,3.40
2022-07-25T08:24:48.340Z,3.67
2022-07-25T08:27:14.783Z,3.60
2022-07-25T08:29:41.252Z,3.53
2022-07-25T08:32:07.689Z,3.90
2022-07-25T08:34:34.193Z,3.50
2022-07-25T08:37:00.643Z,3.30
2022-07-25T08:39:27.546Z,2.93
2022-07-25T08:41:53.987Z,3.40
2022-07-25T08:44:20.491Z,3.70
2022-07-25T08:46:47.010Z,3.87
2022-07-25T08:49:13.555Z,4.40
2022-07-25T08:51:40.079Z,4.17
2022-07-25T08:54:07.787Z,3.47
2022-07-25T08:56:34.631Z,3.37
2022-07-25T08:59:01.060Z,4.07
2022-07-25T09:01:31.537Z,3.83
2022-07-25T09:04:00.866Z,3.90
2022-07-25T09:06:27.325Z,4.30
2022-07-25T09:08:53.799Z,3.87
2022-07-25T09:11:20.251Z,3.80
2022-07-25T09:13:46.928Z,3.63
2022-07-25T09:16:13.472Z,3.90
2022-07-25T09:18:41.437Z,3.70
2022-07-25T09:21:10.729Z,3.63
2022-07-25T09:23:37.173Z,4.10
2022-07-25T09:26:03.662Z,3.77
2022-07-25T09:28:30.108Z,3.90
2022-07-25T09:30:56.592Z,4.40
2022-07-25T09:33:23.042Z,3.63
2022-07-25T09:35:51.985Z,4.00
2022-07-25T09:38:18.473Z,3.93
2022-07-25T09:40:44.941Z,3.87
2022-07-25T09:43:11.416Z,3.67
2022-07-25T09:45:37.877Z,3.83
2022-07-25T09:48:04.372Z,3.43
2022-07-25T09:50:30.834Z,3.70
2022-07-25T09:52:59.705Z,4.23
2022-07-25T09:55:26.199Z,4.10
2022-07-25T09:57:52.709Z,4.13
2022-07-25T10:00:19.655Z,4.37
2022-07-25T10:02:46.202Z,3.97
2022-07-25T10:05:12.721Z,4.03
2022-07-25T10:07:40.373Z,4.20
2022-07-25T10:10:06.873Z,3.70
2022-07-25T10:12:33.331Z,4.47
2022-07-25T10:14:59.766Z,4.00
2022-07-25T10:17:26.228Z,4.70
2022-07-25T10:19:58.342Z,4.60
2022-07-25T10:22:46.611Z,4.00
2022-07-25T10:25:11.701Z,4.20
2022-07-25T10:27:38.177Z,4.37
2022-07-25T10:30:04.654Z,4.27
2022-07-25T10:32:31.129Z,4.30
2022-07-25T10:34:57.609Z,3.93
2022-07-25T10:37:24.092Z,5.47
2022-07-25T10:39:50.567Z,3.80
2022-07-25T10:42:17.160Z,4.30
2022-07-25T10:44:43.648Z,4.50
2022-07-25T10:47:10.122Z,3.90
2022-07-25T10:49:36.671Z,4.10
2022-07-25T10:52:03.209Z,4.90
2022-07-25T10:54:29.666Z,4.60
2022-07-25T10:56:56.120Z,4.03
2022-07-25T10:59:22.591Z,3.90
2022-07-25T11:01:49.122Z,4.27
2022-07-25T11:04:15.623Z,4.23
2022-07-25T11:06:42.059Z,4.30
2022-07-25T11:09:09.024Z,3.80
2022-07-25T11:11:35.853Z,4.43
2022-07-25T11:14:02.345Z,4.77
2022-07-25T11:16:28.863Z,4.60
2022-07-25T11:18:55.352Z,4.20
2022-07-25T11:21:21.855Z,4.10
2022-07-25T11:23:48.318Z,4.70
2022-07-25T11:26:14.841Z,4.20
2022-07-25T11:28:41.273Z,3.80
2022-07-25T11:31:07.712Z,4.13
2022-07-25T11:33:38.461Z,4.40
2022-07-25T11:36:05.421Z,4.30
2022-07-25T11:38:31.883Z,4.00
2022-07-25T11:40:58.322Z,4.30
2022-07-25T11:43:24.758Z,4.47
2022-07-25T11:45:51.471Z,3.80
2022-07-25T11:48:18.014Z,4.23
2022-07-25T11:50:44.499Z,4.13
2022-07-25T11:53:10.959Z,3.80
2022-07-25T11:55:37.422Z,3.70
2022-07-25T11:58:03.935Z,4.70
2022-07-25T12:00:30.403Z,5.20
2022-07-25T12:02:57.007Z,5.77
2022-07-25T12:05:23.586Z,4.77
2022-07-25T12:07:50.064Z,3.97
2022-07-25T12:10:16.559Z,5.50
2022-07-25T12:12:43.051Z,3.77
2022-07-25T12:15:09.485Z,5.17
2022-07-25T12:17:35.960Z,4.20
2022-07-25T12:20:02.510Z,4.07
2022-07-25T12:22:30.568Z,4.80
2022-07-25T12:24:57.000Z,4.40
2022-07-25T12:27:23.446Z,5.00
2022-07-25T12:29:49.892Z,4.43
2022-07-25T12:32:16.381Z,4.40
2022-07-25T12:34:42.852Z,4.43
2022-07-25T12:37:09.322Z,4.33
2022-07-25T12:39:38.222Z,5.20
2022-07-25T12:42:04.749Z,4.10
2022-07-25T12:44:31.185Z,4.23
2022-07-25T12:46:57.644Z,4.60
2022-07-25T12:49:24.171Z,4.80
2022-07-25T12:51:53.507Z,3.87
2022-07-25T12:54:26.976Z,4.87
2022-07-25T12:56:53.558Z,4.70
2022-07-25T12:59:20.173Z,4.53
2022-07-25T13:01:46.712Z,4.80
2022-07-25T13:04:13.242Z,4.33
2022-07-25T13:06:39.727Z,4.67
2022-07-25T13:09:06.556Z,4.67
2022-07-25T13:11:33.320Z,5.00
2022-07-25T13:13:59.794Z,4.70
2022-07-25T13:16:26.300Z,5.13
2022-07-25T13:18:52.796Z,4.00
2022-07-25T13:21:19.269Z,4.63
2022-07-25T13:23:45.760Z,5.10
2022-07-25T13:26:12.203Z,5.10
2022-07-25T13:28:38.663Z,5.17
2022-07-25T13:31:05.103Z,4.67
2022-07-25T13:33:31.805Z,4.83
2022-07-25T13:35:58.256Z,4.97
2022-07-25T13:38:24.702Z,5.60
2022-07-25T13:40:54.423Z,4.90
2022-07-25T13:43:23.430Z,5.50
2022-07-25T13:45:49.948Z,4.50
2022-07-25T13:48:29.670Z,4.40
2022-07-25T13:50:56.915Z,4.27
2022-07-25T13:53:27.955Z,5.20
2022-07-25T13:55:56.320Z,4.60
2022-07-25T13:58:22.787Z,5.40
2022-07-25T14:00:49.365Z,5.00
2022-07-25T14:03:15.887Z,5.13
2022-07-25T14:05:42.334Z,5.10
2022-07-25T14:08:08.794Z,5.07
2022-07-25T14:10:35.237Z,4.80
2022-07-25T14:13:01.677Z,4.60
2022-07-25T14:15:28.114Z,5.37
2022-07-25T14:17:54.576Z,5.10
2022-07-25T14:20:21.033Z,5.70
2022-07-25T14:22:47.459Z,5.13
2022-07-25T14:25:13.904Z,5.30
2022-07-25T14:27:40.352Z,4.70
2022-07-25T14:30:06.815Z,5.23
2022-07-25T14:32:33.293Z,5.00
2022-07-25T14:34:59.741Z,5.13
2022-07-25T14:37:26.181Z,5.97
2022-07-25T14:39:52.623Z,5.70
2022-07-25T14:42:19.093Z,6.10
2022-07-25T14:44:45.535Z,4.17
2022-07-25T14:47:12.637Z,5.17
2022-07-25T14:49:39.330Z,5.53
2022-07-25T14:52:05.773Z,5.30
2022-07-25T14:54:32.228Z,5.83
2022-07-25T14:56:58.659Z,5.47
2022-07-25T14:59:25.113Z,4.93
2022-07-25T15:01:51.558Z,5.33
2022-07-25T15:04:18.098Z,5.40
2022-07-25T15:06:44.582Z,5.53
2022-07-25T15:09:11.216Z,6.13
2022-07-25T15:11:37.830Z,5.60
2022-07-25T15:14:04.288Z,5.80
2022-07-25T15:16:30.824Z,4.70
2022-07-25T15:19:15.908Z,5.57
2022-07-25T15:21:43.478Z,5.00
2022-07-25T15:24:09.939Z,5.23
2022-07-25T15:26:36.388Z,6.40
2022-07-25T15:29:02.851Z,5.53
2022-07-25T15:31:29.400Z,6.60
2022-07-25T15:33:55.893Z,5.80
2022-07-25T15:36:27.146Z,5.70
2022-07-25T15:38:55.743Z,6.27
2022-07-25T15:41:22.330Z,5.90
2022-07-25T15:43:48.778Z,5.20
2022-07-25T15:46:15.342Z,5.47
2022-07-25T15:48:41.903Z,5.67
2022-07-25T15:51:08.411Z,6.23
2022-07-25T15:53:34.889Z,6.00
2022-07-25T15:56:01.364Z,6.37
2022-07-25T15:58:27.877Z,5.70
2022-07-25T16:00:54.563Z,5.90
2022-07-25T16:03:21.099Z,6.00
2022-07-25T16:05:47.546Z,5.83
2022-07-25T16:08:13.996Z,5.83
2022-07-25T16:10:40.465Z,5.47
2022-07-25T16:13:06.904Z,5.57
2022-07-25T16:15:33.347Z,6.20
2022-07-25T16:18:02.680Z,5.53
2022-07-25T16:20:29.639Z,5.80
2022-07-25T16:22:56.092Z,5.77
2022-07-25T16:25:22.563Z,6.17
2022-07-25T16:27:48.999Z,6.10
2022-07-25T16:30:16.730Z,5.20
2022-07-25T16:32:43.174Z,5.40
2022-07-25T16:35:09.639Z,5.97
2022-07-25T16:37:36.089Z,5.40
2022-07-25T16:40:02.566Z,5.77
2022-07-25T16:42:29.000Z,5.23
2022-07-25T16:44:55.465Z,5.07
2022-07-25T16:47:21.909Z,5.07
2022-07-25T16:49:48.369Z,6.20
2022-07-25T16:52:14.809Z,5.50
2022-07-25T16:54:42.195Z,5.50
2022-07-25T16:57:08.718Z,5.60
2022-07-25T16:59:35.181Z,5.57
2022-07-25T17:02:01.744Z,5.13
2022-07-25T17:04:29.344Z,5.83
2022-07-25T17:06:55.855Z,4.87
2022-07-25T17:09:22.321Z,5.80
2022-07-25T17:11:48.788Z,5.17
2022-07-25T17:14:15.235Z,4.60
2022-07-25T17:16:41.746Z,5.70
2022-07-25T17:19:08.538Z,5.57
2022-07-25T17:21:35.379Z,5.97
2022-07-25T17:24:01.891Z,5.37
2022-07-25T17:26:28.374Z,4.70
2022-07-25T17:28:54.809Z,5.30
2022-07-25T17:31:21.366Z,5.10
2022-07-25T17:33:47.834Z,5.37
2022-07-25T17:36:14.336Z,5.20
2022-07-25T17:38:40.797Z,5.10
2022-07-25T17:41:07.256Z,4.30
2022-07-25T17:43:33.694Z,5.20
2022-07-25T17:46:00.250Z,5.90
2022-07-25T17:48:26.815Z,5.00
2022-07-25T17:50:53.462Z,4.63
2022-07-25T17:53:19.909Z,5.67
2022-07-25T17:55:46.446Z,4.80
2022-07-25T17:58:12.961Z,5.20
2022-07-25T18:00:39.420Z,5.70
2022-07-25T18:03:05.993Z,4.90
2022-07-25T18:05:32.504Z,5.27
2022-07-25T18:07:58.965Z,5.30
2022-07-25T18:10:25.457Z,4.77
2022-07-25T18:12:51.967Z,4.93
2022-07-25T18:15:18.440Z,5.30
2022-07-25T18:17:44.910Z,6.07
2022-07-25T18:20:11.442Z,5.00
2022-07-25T18:22:37.948Z,5.77
2022-07-25T18:25:04.455Z,4.63
2022-07-25T18:27:31.193Z,4.70
2022-07-25T18:29:57.742Z,5.30
2022-07-25T18:32:24.272Z,4.87
2022-07-25T18:34:50.832Z,4.30
2022-07-25T18:37:17.454Z,5.30
2022-07-25T18:39:44.384Z,4.63
2022-07-25T18:42:12.316Z,5.30
2022-07-25T18:44:38.854Z,4.70
2022-07-25T18:47:06.792Z,5.03
2022-07-25T18:49:33.378Z,4.80
2022-07-25T18:51:59.995Z,4.30
2022-07-25T18:54:26.521Z,4.53
2022-07-25T18:56:53.135Z,4.27
2022-07-25T18:59:19.879Z,4.87
2022-07-25T19:01:47.345Z,4.10
2022-07-25T19:04:14.235Z,4.20
2022-07-25T19:06:41.614Z,4.10
2022-07-25T19:09:08.240Z,4.30
2022-07-25T19:11:37.698Z,4.60
2022-07-25T19:14:08.798Z,5.00
2022-07-25T19:16:35.590Z,4.50
2022-07-25T19:19:02.144Z,4.73
2022-07-25T19:21:28.663Z,4.30
2022-07-25T19:23:55.192Z,3.70
2022-07-25T19:26:21.729Z,4.77
2022-07-25T19:28:48.296Z,5.13
2022-07-25T19:31:15.278Z,4.50
2022-07-25T19:33:41.821Z,4.13
2022-07-25T19:36:09.123Z,4.67
2022-07-25T19:38:36.941Z,4.90
2022-07-25T19:41:07.131Z,4.80
2022-07-25T19:43:33.624Z,3.97
2022-07-25T19:46:00.284Z,4.27
2022-07-25T19:48:26.861Z,4.23
2022-07-25T19:50:53.367Z,3.80
2022-07-25T19:53:22.049Z,4.30
2022-07-25T19:55:50.718Z,4.60
2022-07-25T19:58:17.253Z,4.47
2022-07-25T20:00:43.772Z,4.57
2022-07-25T20:03:10.303Z,4.03
2022-07-25T20:05:38.725Z,3.87
2022-07-25T20:08:05.387Z,4.40
2022-07-25T20:10:32.174Z,3.83
2022-07-25T20:13:05.982Z,3.50
2022-07-25T20:15:32.584Z,3.50
2022-07-25T20:18:03.172Z,4.10
2022-07-25T20:20:29.626Z,4.57
2022-07-25T20:22:56.399Z,3.77
2022-07-25T20:25:22.878Z,4.20
2022-07-25T20:27:49.368Z,3.93
2022-07-25T20:30:15.904Z,3.70
2022-07-25T20:32:44.436Z,4.57
2022-07-25T20:35:11.063Z,4.30
2022-07-25T20:37:37.557Z,3.40
2022-07-25T20:40:05.351Z,4.63
2022-07-25T20:42:31.927Z,3.80
2022-07-25T20:44:58.388Z,4.27
2022-07-25T20:50:07.183Z,3.50
2022-07-25T20:52:47.661Z,4.20
2022-07-25T20:55:22.448Z,5.20
2022-07-25T21:00:35.924Z,4.40
2022-07-25T21:03:08.040Z,3.60
2022-07-25T21:11:11.167Z,4.20
2022-07-25T21:13:40.185Z,3.70
2022-07-25T21:19:17.494Z,4.20
2022-07-25T21:21:54.001Z,4.03
2022-07-25T21:27:09.812Z,4.43
2022-07-25T21:29:43.901Z,4.00
2022-07-25T21:32:23.611Z,4.13
2022-07-25T21:34:54.410Z,3.63
2022-07-25T21:37:28.876Z,3.70
2022-07-25T21:39:58.620Z,3.93
2022-07-25T21:42:27.217Z,4.60
2022-07-25T21:44:57.098Z,4.63
2022-07-25T21:47:25.166Z,3.53
2022-07-25T21:55:58.080Z,4.40
2022-07-25T22:01:26.900Z,5.60
2022-07-25T22:18:06.755Z,3.70
2022-07-25T22:26:21.895Z,3.80
2022-07-25T22:31:34.879Z,3.77
2022-07-25T22:34:06.281Z,3.30
2022-07-25T22:36:42.657Z,5.00
2022-07-25T22:39:24.709Z,4.77
2022-07-25T22:47:21.729Z,3.60
2022-07-25T22:49:55.897Z,3.80
2022-07-25T22:52:22.507Z,4.20
2022-07-25T22:54:48.994Z,3.60
2022-07-25T22:57:15.453Z,3.17
2022-07-25T23:11:03.149Z,4.80
2022-07-25T23:19:22.037Z,8.53
2022-07-25T23:21:52.716Z,3.60
2022-07-25T23:24:33.077Z,3.30
2022-07-25T23:27:00.986Z,3.20
2022-07-25T23:29:27.496Z,4.50
2022-07-25T23:31:54.021Z,3.10
2022-07-25T23:34:30.089Z,3.67
2022-07-25T23:36:56.667Z,3.03
2022-07-25T23:39:23.177Z,4.10
2022-07-25T23:41:49.737Z,3.60
2022-07-25T23:44:16.300Z,4.00
2022-07-25T23:46:43.242Z,3.93
2022-07-25T23:49:21.986Z,3.40
2022-07-25T23:51:48.538Z,3.40
2022-07-25T23:54:15.020Z,3.40
2022-07-25T23:56:41.515Z,2.73
2022-07-25T23:59:08.472Z,3.50
